首页
METAR-TAF:

METAR-TAF

机场 :

马德里Cuatro Vientos, 西班牙

纬度: 40-23N, 经度: 003-47W, 海拔: 690米

当前天气观测

该预报发布于26分钟前的14:00 UTC
风速9节,风向南转西南,在南转南东西转西南之间变化
温度 13°C
湿度 82%
气压 1023 hPa
能见度10公里或以上
散云层高于1500英尺

METAR: LEVS 291400Z 21009KT 160V240 9999 SCT015 13/10 Q1023

时间: 15:26 (14:26 UTC)

预报

该预报发布于3小时和26分钟前的11:00 UTC
预报有效从29日的 12点(UTC)到 29日的 21点(UTC)
风速12节,风向西转西南
能见度10公里或以上
多云层高于900英尺
多云层高于4500英尺
几率 30% :
短暂存在
从 29日的 12点(UTC)到 29日的 17点(UTC)
风速12节,风向西转西南,有时为25节阵风

TAF: LEVS 291100Z 2912/2921 24012KT 9999 BKN009 BKN045 PROB30 TEMPO 2912/2917 24012G25KT

超过4000个机场的气象观测和天气预报(METAR&TAF报告)。

可查询的气象台以黄色和红色小点在地图上表示。

将鼠标移到小点上方,可查看气象台名称。

然后点击查看天气观测和预报。

如需切换地图:点击带黑十字的绿色按钮放大地图;点击带横线的绿色按钮缩小地图;或者点击绿色箭头查看邻近地区的地图。


METAR-TAF: